createdAt,value
2023-03-15T00:02:13.244Z,4.00
2023-03-15T00:04:41.702Z,4.00
2023-03-15T00:07:09.651Z,4.00
2023-03-15T00:09:38.750Z,4.00
2023-03-15T00:12:07.199Z,4.00
2023-03-15T00:14:35.000Z,4.00
2023-03-15T00:17:03.434Z,4.00
2023-03-15T00:19:31.212Z,4.00
2023-03-15T00:21:58.950Z,4.00
2023-03-15T00:24:26.734Z,4.10
2023-03-15T00:26:55.867Z,4.10
2023-03-15T00:29:23.678Z,4.10
2023-03-15T00:31:51.574Z,4.10
2023-03-15T00:34:23.696Z,4.10
2023-03-15T00:36:53.478Z,4.10
2023-03-15T00:39:21.380Z,4.20
2023-03-15T00:41:49.158Z,4.10
2023-03-15T00:44:18.346Z,4.10
2023-03-15T00:46:46.113Z,4.10
2023-03-15T00:49:13.911Z,4.10
2023-03-15T00:51:41.700Z,4.10
2023-03-15T00:54:13.766Z,4.10
2023-03-15T00:56:42.045Z,4.10
2023-03-15T00:59:09.807Z,4.10
2023-03-15T01:01:41.056Z,4.10
2023-03-15T01:04:08.858Z,4.10
2023-03-15T01:06:36.727Z,4.10
2023-03-15T01:09:05.664Z,4.00
2023-03-15T01:11:33.470Z,4.00
2023-03-15T01:14:03.447Z,3.90
2023-03-15T01:16:31.305Z,4.00
2023-03-15T01:19:01.051Z,4.00
2023-03-15T01:21:28.986Z,4.00
2023-03-15T01:23:56.896Z,4.00
2023-03-15T01:26:24.834Z,4.00
2023-03-15T01:28:52.686Z,4.00
2023-03-15T01:31:22.590Z,4.10
2023-03-15T01:33:50.661Z,4.10
2023-03-15T01:36:20.342Z,4.00
2023-03-15T01:38:49.438Z,4.00
2023-03-15T01:41:18.322Z,4.10
2023-03-15T01:43:48.565Z,4.00
2023-03-15T01:46:23.885Z,4.00
2023-03-15T01:48:57.993Z,3.90
2023-03-15T01:51:31.459Z,4.00
2023-03-15T01:54:05.476Z,4.00
2023-03-15T01:56:35.302Z,4.00
2023-03-15T01:59:06.420Z,4.00
2023-03-15T02:01:36.988Z,4.00
2023-03-15T02:04:10.812Z,3.90
2023-03-15T02:06:39.971Z,3.90
2023-03-15T02:09:14.772Z,3.80
2023-03-15T02:11:43.289Z,3.80
2023-03-15T02:14:14.168Z,3.70
2023-03-15T02:16:44.121Z,3.70
2023-03-15T02:19:26.095Z,3.60
2023-03-15T02:22:02.714Z,3.60
2023-03-15T02:24:43.555Z,3.50
2023-03-15T02:27:11.507Z,3.50
2023-03-15T02:29:42.039Z,3.50
2023-03-15T02:32:10.043Z,3.40
2023-03-15T02:34:37.808Z,3.50
2023-03-15T02:37:05.693Z,3.50
2023-03-15T02:39:33.458Z,3.50
2023-03-15T02:42:02.778Z,3.60
2023-03-15T02:44:33.400Z,3.60
2023-03-15T02:47:05.363Z,3.70
2023-03-15T02:49:39.264Z,3.60
2023-03-15T02:52:07.903Z,3.60
2023-03-15T02:54:36.409Z,3.60
2023-03-15T02:57:04.465Z,3.60
2023-03-15T02:59:32.272Z,3.60
2023-03-15T03:02:00.118Z,3.60
2023-03-15T03:04:29.467Z,3.60
2023-03-15T03:06:57.268Z,3.60
2023-03-15T03:09:25.922Z,3.60
2023-03-15T03:11:53.930Z,3.60
2023-03-15T03:14:23.710Z,3.50
2023-03-15T03:16:51.950Z,3.50
2023-03-15T03:19:20.017Z,3.40
2023-03-15T03:21:49.167Z,3.30
2023-03-15T03:24:16.937Z,3.30
2023-03-15T03:26:45.941Z,3.20
2023-03-15T03:29:16.333Z,3.20
2023-03-15T03:31:44.571Z,3.10
2023-03-15T03:34:15.391Z,3.10
2023-03-15T03:36:43.792Z,3.20
2023-03-15T03:39:13.292Z,3.20
2023-03-15T03:41:41.133Z,3.20
2023-03-15T03:44:08.914Z,3.20
2023-03-15T03:46:37.187Z,3.20
2023-03-15T03:49:04.953Z,3.20
2023-03-15T03:51:33.969Z,3.10
2023-03-15T03:54:02.165Z,3.00
2023-03-15T03:56:31.830Z,3.00
2023-03-15T03:58:59.572Z,2.90
2023-03-15T04:01:27.399Z,2.80
2023-03-15T04:03:55.163Z,2.80
2023-03-15T04:06:23.525Z,2.80
2023-03-15T04:08:51.369Z,2.70
2023-03-15T04:11:19.159Z,2.70
2023-03-15T04:13:49.201Z,2.60
2023-03-15T04:16:16.996Z,2.60
2023-03-15T04:18:44.806Z,2.50
2023-03-15T04:21:12.623Z,2.50
2023-03-15T04:23:40.681Z,2.50
2023-03-15T04:26:08.451Z,2.60
2023-03-15T04:28:37.899Z,2.50
2023-03-15T04:31:10.430Z,2.50
2023-03-15T04:33:38.310Z,2.50
2023-03-15T04:36:06.529Z,2.50
2023-03-15T04:38:35.387Z,2.60
2023-03-15T04:41:10.677Z,2.50
2023-03-15T04:43:38.469Z,2.50
2023-03-15T04:46:08.060Z,2.50
2023-03-15T04:48:36.119Z,2.40
2023-03-15T04:51:04.364Z,2.50
2023-03-15T04:53:32.169Z,2.40
2023-03-15T04:55:59.957Z,2.30
2023-03-15T04:58:27.793Z,2.30
2023-03-15T05:00:55.636Z,2.30
2023-03-15T05:03:24.762Z,2.30
2023-03-15T05:05:52.514Z,2.20
2023-03-15T05:08:20.736Z,2.20
2023-03-15T05:10:48.573Z,2.20
2023-03-15T05:13:18.794Z,2.20
2023-03-15T05:15:46.536Z,2.10
2023-03-15T05:18:14.273Z,2.10
2023-03-15T05:20:43.368Z,2.00
2023-03-15T05:23:11.359Z,2.00
2023-03-15T05:25:39.134Z,2.70
2023-03-15T05:28:07.053Z,2.00
2023-03-15T05:30:34.853Z,2.00
2023-03-15T05:33:04.689Z,2.10
2023-03-15T05:35:32.488Z,2.10
2023-03-15T05:38:01.605Z,2.10
2023-03-15T05:40:30.314Z,2.10
2023-03-15T05:42:58.265Z,2.10
2023-03-15T05:45:26.248Z,2.10
2023-03-15T05:47:54.029Z,2.10
2023-03-15T05:50:21.922Z,2.10
2023-03-15T05:52:51.625Z,2.10
2023-03-15T05:55:20.753Z,2.10
2023-03-15T05:57:48.978Z,2.10
2023-03-15T06:00:18.387Z,2.30
2023-03-15T06:02:47.238Z,2.30
2023-03-15T06:05:15.032Z,2.40
2023-03-15T06:07:42.813Z,2.40
2023-03-15T06:10:12.074Z,2.40
2023-03-15T06:12:41.777Z,2.40
2023-03-15T06:15:11.008Z,2.40
2023-03-15T06:17:38.801Z,2.50
2023-03-15T06:20:07.514Z,2.60
2023-03-15T06:22:35.272Z,2.60
2023-03-15T06:25:03.477Z,2.60
2023-03-15T06:27:31.218Z,2.70
2023-03-15T06:30:00.312Z,2.60
2023-03-15T06:32:28.283Z,2.60
2023-03-15T06:34:56.158Z,2.60
2023-03-15T06:37:34.672Z,2.70
2023-03-15T06:40:04.093Z,2.80
2023-03-15T06:42:31.857Z,2.80
2023-03-15T06:45:01.062Z,2.90
2023-03-15T06:47:28.880Z,3.00
2023-03-15T06:49:57.013Z,3.00
2023-03-15T06:52:25.337Z,3.10
2023-03-15T06:54:53.179Z,3.10
2023-03-15T06:57:20.978Z,3.20
2023-03-15T06:59:48.721Z,3.20
2023-03-15T07:02:19.366Z,3.20
2023-03-15T07:04:47.876Z,3.40
2023-03-15T07:07:16.166Z,3.40
2023-03-15T07:09:44.009Z,3.50
2023-03-15T07:12:12.591Z,3.60
2023-03-15T07:14:40.355Z,3.70
2023-03-15T07:17:08.256Z,3.70
2023-03-15T07:19:44.056Z,3.70
2023-03-15T07:22:18.115Z,3.80
2023-03-15T07:24:45.868Z,3.80
2023-03-15T07:27:16.133Z,3.90
2023-03-15T07:29:44.831Z,4.00
2023-03-15T07:32:12.903Z,4.10
2023-03-15T07:34:42.263Z,3.80
2023-03-15T07:37:10.273Z,4.30
2023-03-15T07:39:38.038Z,4.40
2023-03-15T07:42:07.104Z,4.50
2023-03-15T07:44:34.867Z,4.60
2023-03-15T07:47:02.666Z,4.80
2023-03-15T07:49:31.571Z,4.90
2023-03-15T07:52:00.674Z,4.90
2023-03-15T07:54:29.417Z,4.80
2023-03-15T07:56:57.171Z,4.70
2023-03-15T07:59:24.942Z,4.60
2023-03-15T08:01:52.823Z,4.70
2023-03-15T08:04:21.126Z,4.90
2023-03-15T08:06:48.962Z,5.00
2023-03-15T08:09:18.116Z,5.30
2023-03-15T08:11:45.912Z,5.50
2023-03-15T08:14:13.794Z,5.60
2023-03-15T08:16:41.828Z,5.50
2023-03-15T08:19:10.292Z,5.40
2023-03-15T08:21:38.100Z,5.30
2023-03-15T08:24:06.333Z,5.30
2023-03-15T08:26:35.389Z,5.40
2023-03-15T08:29:03.136Z,5.60
2023-03-15T08:31:31.061Z,5.80
2023-03-15T08:33:58.914Z,6.10
2023-03-15T08:36:26.777Z,6.40
2023-03-15T08:38:54.606Z,6.80
2023-03-15T08:41:22.358Z,7.20
2023-03-15T08:43:51.487Z,7.60
2023-03-15T08:46:21.789Z,8.00
2023-03-15T08:48:49.733Z,8.30
2023-03-15T08:51:17.484Z,8.60
2023-03-15T08:53:45.263Z,8.80
2023-03-15T08:56:13.061Z,9.10
2023-03-15T08:58:41.451Z,9.50
2023-03-15T09:01:12.391Z,9.70
2023-03-15T09:03:40.218Z,10.00
2023-03-15T09:06:08.477Z,10.20
2023-03-15T09:08:36.353Z,10.60
2023-03-15T09:11:04.458Z,10.70
2023-03-15T09:13:32.223Z,10.90
2023-03-15T09:16:00.002Z,10.80
2023-03-15T09:18:29.083Z,10.50
2023-03-15T09:20:57.725Z,9.90
2023-03-15T09:23:25.720Z,9.10
2023-03-15T09:25:53.463Z,8.40
2023-03-15T09:28:21.239Z,7.90
2023-03-15T09:30:49.048Z,7.60
2023-03-15T09:33:16.881Z,7.30
2023-03-15T09:35:46.009Z,7.00
2023-03-15T09:38:13.797Z,7.00
2023-03-15T09:40:44.919Z,7.00
2023-03-15T09:43:32.051Z,7.10
2023-03-15T09:46:11.896Z,7.10
2023-03-15T09:48:48.666Z,6.90
2023-03-15T09:51:30.149Z,6.70
2023-03-15T09:54:01.772Z,6.60
2023-03-15T09:56:33.438Z,6.40
2023-03-15T09:59:02.916Z,6.20
2023-03-15T10:01:33.304Z,6.10
2023-03-15T10:04:05.224Z,6.00
2023-03-15T10:06:37.746Z,5.80
2023-03-15T10:09:13.745Z,5.50
2023-03-15T10:11:48.105Z,5.20
2023-03-15T10:14:28.815Z,4.90
2023-03-15T10:16:56.605Z,4.70
2023-03-15T10:19:33.503Z,4.50
2023-03-15T10:22:13.929Z,4.40
2023-03-15T10:24:47.901Z,4.40
2023-03-15T10:27:20.673Z,4.40
2023-03-15T10:29:51.526Z,4.50
2023-03-15T10:32:21.540Z,4.50
2023-03-15T10:34:52.258Z,4.60
2023-03-15T10:37:23.523Z,4.60
2023-03-15T10:39:55.433Z,4.50
2023-03-15T10:42:30.631Z,4.50
2023-03-15T10:44:58.803Z,4.40
2023-03-15T10:47:27.943Z,4.50
2023-03-15T10:50:00.319Z,4.40
2023-03-15T10:52:39.536Z,4.40
2023-03-15T10:55:12.276Z,4.50
2023-03-15T10:57:42.677Z,4.50
2023-03-15T11:00:29.378Z,4.50
2023-03-15T11:03:08.117Z,4.60
2023-03-15T11:05:42.782Z,4.60
2023-03-15T11:08:15.444Z,4.60
2023-03-15T11:10:44.855Z,4.50
2023-03-15T11:13:21.847Z,4.50
2023-03-15T11:15:57.208Z,4.50
2023-03-15T11:18:30.823Z,4.40
2023-03-15T11:20:59.945Z,4.40
2023-03-15T11:23:32.614Z,4.40
2023-03-15T11:26:01.280Z,4.30
2023-03-15T11:28:32.547Z,4.30
2023-03-15T11:31:04.409Z,4.30
2023-03-15T11:33:42.249Z,4.30
2023-03-15T11:36:15.371Z,4.20
2023-03-15T11:38:46.044Z,4.20
2023-03-15T11:41:28.607Z,4.20
2023-03-15T11:44:04.535Z,4.20
2023-03-15T11:46:37.711Z,4.10
2023-03-15T11:49:13.959Z,4.10
2023-03-15T11:51:41.968Z,4.10
2023-03-15T11:54:15.334Z,4.00
2023-03-15T11:56:50.631Z,4.00
2023-03-15T11:59:21.221Z,4.00
2023-03-15T12:01:50.751Z,4.10
2023-03-15T12:04:39.793Z,4.00
2023-03-15T12:07:28.617Z,4.00
2023-03-15T12:09:58.291Z,4.00
2023-03-15T12:12:41.348Z,3.90
2023-03-15T12:15:45.048Z,3.90
2023-03-15T12:18:27.909Z,3.90
2023-03-15T12:21:08.413Z,3.90
2023-03-15T12:23:43.447Z,3.90
2023-03-15T12:26:25.560Z,4.00
2023-03-15T12:29:04.761Z,4.00
2023-03-15T12:31:52.327Z,3.90
2023-03-15T12:34:37.001Z,3.90
2023-03-15T12:37:08.679Z,4.00
2023-03-15T12:39:40.559Z,4.00
2023-03-15T12:42:14.242Z,4.00
2023-03-15T12:44:43.482Z,4.00
2023-03-15T12:47:12.763Z,4.10
2023-03-15T12:49:44.137Z,4.10
2023-03-15T12:52:33.684Z,4.10
2023-03-15T12:55:08.289Z,4.00
2023-03-15T12:57:45.962Z,4.00
2023-03-15T13:00:17.037Z,4.00
2023-03-15T13:02:47.869Z,4.00
2023-03-15T13:05:23.290Z,3.90
2023-03-15T13:08:08.824Z,3.90
2023-03-15T13:10:48.500Z,3.90
2023-03-15T13:13:33.988Z,3.80
2023-03-15T13:16:15.231Z,3.80
2023-03-15T13:18:49.812Z,3.90
2023-03-15T13:21:25.192Z,3.90
2023-03-15T13:23:53.818Z,4.00
2023-03-15T13:26:35.985Z,4.00
2023-03-15T13:29:12.479Z,4.10
2023-03-15T13:31:40.574Z,4.20
2023-03-15T13:34:14.105Z,4.30
2023-03-15T13:36:46.246Z,4.30
2023-03-15T13:39:20.551Z,4.30
2023-03-15T13:41:48.326Z,4.40
2023-03-15T13:44:20.656Z,4.40
2023-03-15T13:46:49.297Z,4.50
2023-03-15T13:49:17.422Z,4.50
2023-03-15T13:51:46.718Z,4.50
2023-03-15T13:54:19.068Z,4.50
2023-03-15T13:56:57.514Z,4.60
2023-03-15T13:59:32.518Z,4.70
2023-03-15T14:02:02.397Z,4.70
2023-03-15T14:04:31.620Z,4.70
2023-03-15T14:07:19.725Z,4.60
2023-03-15T14:09:47.494Z,4.60
2023-03-15T14:12:22.740Z,4.50
2023-03-15T14:14:53.733Z,4.50
2023-03-15T14:17:26.884Z,4.40
2023-03-15T14:19:56.620Z,4.40
2023-03-15T14:22:25.398Z,4.40
2023-03-15T14:24:53.952Z,4.40
2023-03-15T14:27:26.047Z,4.40
2023-03-15T14:29:57.372Z,4.40
2023-03-15T14:32:29.563Z,4.40
2023-03-15T14:35:03.309Z,4.40
2023-03-15T14:37:35.825Z,4.40
2023-03-15T14:40:15.270Z,4.50
2023-03-15T14:42:43.313Z,4.60
2023-03-15T14:45:13.359Z,4.70
2023-03-15T14:47:55.537Z,4.70
2023-03-15T14:50:26.583Z,4.70
2023-03-15T14:52:55.107Z,4.90
2023-03-15T14:55:25.990Z,5.00
2023-03-15T14:57:53.763Z,5.10
2023-03-15T15:00:24.734Z,5.20
2023-03-15T15:02:55.249Z,5.30
2023-03-15T15:05:26.601Z,5.40
2023-03-15T15:07:59.848Z,5.60
2023-03-15T15:10:27.717Z,5.70
2023-03-15T15:13:05.488Z,5.80
2023-03-15T15:15:54.055Z,5.90
2023-03-15T15:18:23.001Z,6.00
2023-03-15T15:20:54.040Z,6.00
2023-03-15T15:23:25.323Z,6.00
2023-03-15T15:25:55.209Z,6.00
2023-03-15T15:28:33.878Z,5.90
2023-03-15T15:31:06.051Z,5.90
2023-03-15T15:33:33.918Z,5.90
2023-03-15T15:36:02.230Z,5.90
2023-03-15T15:38:37.844Z,5.90
2023-03-15T15:41:05.980Z,5.90
2023-03-15T15:43:33.885Z,5.90
2023-03-15T15:46:01.974Z,5.90
2023-03-15T15:48:31.149Z,5.90
2023-03-15T15:50:59.210Z,5.90
2023-03-15T15:53:29.958Z,5.90
2023-03-15T15:55:58.413Z,5.80
2023-03-15T15:58:26.197Z,5.70
2023-03-15T16:00:53.971Z,5.60
2023-03-15T16:03:21.727Z,5.50
2023-03-15T16:05:50.870Z,5.40
2023-03-15T16:08:23.154Z,5.30
2023-03-15T16:10:51.159Z,5.30
2023-03-15T16:13:19.147Z,5.20
2023-03-15T16:15:47.195Z,5.20
2023-03-15T16:18:15.183Z,5.20
2023-03-15T16:20:44.026Z,5.30
2023-03-15T16:23:19.405Z,5.30
2023-03-15T16:25:48.842Z,5.20
2023-03-15T16:28:16.791Z,5.20
2023-03-15T16:30:46.638Z,5.20
2023-03-15T16:33:16.176Z,5.00
2023-03-15T16:35:44.871Z,4.70
2023-03-15T16:38:16.944Z,4.30
2023-03-15T16:40:46.484Z,4.00
2023-03-15T16:43:14.747Z,3.80
2023-03-15T16:45:42.530Z,3.80
2023-03-15T16:48:11.813Z,3.80
2023-03-15T16:50:40.789Z,3.80
2023-03-15T16:53:11.255Z,3.80
2023-03-15T16:55:40.830Z,3.80
2023-03-15T16:58:16.481Z,3.80
2023-03-15T17:00:46.900Z,3.80
2023-03-15T17:03:16.024Z,3.80
2023-03-15T17:05:46.376Z,3.80
2023-03-15T17:08:18.172Z,3.80
2023-03-15T17:10:47.448Z,3.90
2023-03-15T17:13:17.357Z,3.80
2023-03-15T17:15:45.263Z,3.80
2023-03-15T17:18:18.350Z,3.70
2023-03-15T17:20:47.637Z,3.60
2023-03-15T17:23:15.774Z,3.60
2023-03-15T17:25:43.575Z,3.50
2023-03-15T17:28:12.678Z,3.50
2023-03-15T17:30:40.903Z,3.50
2023-03-15T17:33:09.099Z,3.50
2023-03-15T17:35:39.001Z,3.40
2023-03-15T17:38:13.502Z,3.40
2023-03-15T17:40:41.444Z,3.30
2023-03-15T17:43:15.246Z,3.20
2023-03-15T17:45:43.411Z,3.20
2023-03-15T17:48:11.350Z,3.20
2023-03-15T17:50:41.340Z,3.20
2023-03-15T17:53:15.394Z,3.10
2023-03-15T17:55:43.449Z,3.20
2023-03-15T17:58:17.092Z,3.20
2023-03-15T18:00:44.962Z,3.20
2023-03-15T18:03:14.253Z,3.10
2023-03-15T18:05:42.313Z,3.10
2023-03-15T18:08:12.293Z,3.10
2023-03-15T18:10:42.387Z,3.00
2023-03-15T18:13:15.018Z,3.00
2023-03-15T18:15:42.773Z,2.90
2023-03-15T18:18:10.634Z,2.70
2023-03-15T18:20:38.479Z,2.60
2023-03-15T18:23:06.559Z,2.50
2023-03-15T18:25:35.889Z,2.50
2023-03-15T18:28:03.702Z,2.50
2023-03-15T18:30:33.578Z,2.60
2023-03-15T18:33:01.975Z,2.60
2023-03-15T18:35:32.510Z,2.60
2023-03-15T18:38:00.719Z,2.60
2023-03-15T18:40:30.608Z,2.60
2023-03-15T18:42:58.600Z,2.60
2023-03-15T18:45:28.770Z,2.40
2023-03-15T18:47:59.643Z,2.30
2023-03-15T18:50:28.383Z,2.20
2023-03-15T18:52:56.186Z,2.20
2023-03-15T18:55:24.396Z,2.20
2023-03-15T18:57:53.406Z,2.20
2023-03-15T19:00:26.049Z,2.10
2023-03-15T19:02:55.393Z,2.00
2023-03-15T19:05:25.732Z,1.90
2023-03-15T19:07:53.631Z,1.80
2023-03-15T19:10:23.089Z,1.80
2023-03-15T19:12:52.079Z,1.70
2023-03-15T19:15:20.864Z,1.80
2023-03-15T19:17:50.823Z,1.80
2023-03-15T19:20:21.919Z,1.90
2023-03-15T19:22:51.896Z,1.90
2023-03-15T19:25:20.287Z,2.00
2023-03-15T19:27:48.554Z,2.00
2023-03-15T19:30:20.670Z,2.10
2023-03-15T19:32:49.830Z,2.00
2023-03-15T19:35:19.090Z,2.00
2023-03-15T19:37:46.932Z,1.80
2023-03-15T19:40:17.418Z,1.80
2023-03-15T19:42:45.438Z,1.60
2023-03-15T19:45:13.892Z,1.40
2023-03-15T19:47:42.027Z,1.20
2023-03-15T19:50:11.466Z,1.20
2023-03-15T19:52:45.606Z,1.10
2023-03-15T19:55:13.690Z,1.20
2023-03-15T19:57:42.833Z,1.20
2023-03-15T20:00:12.623Z,1.20
2023-03-15T20:02:40.866Z,1.20
2023-03-15T20:05:09.551Z,1.30
2023-03-15T20:07:37.769Z,1.30
2023-03-15T20:10:08.315Z,1.30
2023-03-15T20:12:36.838Z,1.30
2023-03-15T20:15:09.838Z,1.30
2023-03-15T20:17:37.879Z,1.20
2023-03-15T20:20:09.744Z,1.20
2023-03-15T20:22:39.283Z,1.20
2023-03-15T20:25:09.625Z,1.20
2023-03-15T20:27:37.842Z,1.10
2023-03-15T20:30:09.750Z,1.10
2023-03-15T20:32:37.588Z,1.10
2023-03-15T20:35:09.018Z,1.10
2023-03-15T20:37:40.063Z,1.10
2023-03-15T20:40:10.601Z,1.10
2023-03-15T20:42:38.424Z,1.10
2023-03-15T20:45:09.463Z,1.10
2023-03-15T20:47:37.797Z,1.00
2023-03-15T20:50:06.089Z,1.00
2023-03-15T20:52:34.157Z,1.00
2023-03-15T20:55:03.382Z,1.00
2023-03-15T20:57:31.255Z,1.00
2023-03-15T20:59:59.424Z,1.00
2023-03-15T21:02:28.583Z,1.00
2023-03-15T21:04:56.387Z,1.00
2023-03-15T21:07:24.162Z,1.00
2023-03-15T21:09:51.916Z,1.10
2023-03-15T21:12:19.911Z,1.10
2023-03-15T21:14:47.670Z,1.00
2023-03-15T21:17:15.459Z,0.90
2023-03-15T21:19:44.543Z,0.80
2023-03-15T21:22:12.723Z,0.70
2023-03-15T21:24:52.974Z,0.70
2023-03-15T21:27:25.962Z,0.80
2023-03-15T21:29:53.784Z,0.90
2023-03-15T21:32:21.813Z,0.90
2023-03-15T21:34:50.924Z,0.70
2023-03-15T21:37:18.674Z,0.60
2023-03-15T21:39:46.525Z,0.40
2023-03-15T21:42:14.258Z,0.40
2023-03-15T21:44:42.079Z,0.30
2023-03-15T21:47:10.130Z,0.10
2023-03-15T21:49:37.887Z,0.00
2023-03-15T21:52:07.150Z,0.00
2023-03-15T21:54:34.925Z,0.00
2023-03-15T21:57:04.076Z,0.00
2023-03-15T21:59:32.097Z,0.00
2023-03-15T22:02:01.497Z,0.10
2023-03-15T22:04:29.392Z,0.10
2023-03-15T22:06:57.178Z,0.10
2023-03-15T22:09:26.426Z,0.10
2023-03-15T22:11:54.196Z,0.10
2023-03-15T22:14:22.172Z,0.10
2023-03-15T22:16:49.969Z,0.10
2023-03-15T22:19:17.877Z,0.00
2023-03-15T22:21:45.629Z,-0.10
2023-03-15T22:24:13.385Z,-0.20
2023-03-15T22:26:42.939Z,-0.20
2023-03-15T22:29:10.928Z,-0.20
2023-03-15T22:31:38.788Z,-0.20
2023-03-15T22:34:06.576Z,-0.20
2023-03-15T22:36:34.557Z,-0.20
2023-03-15T22:39:03.462Z,-0.20
2023-03-15T22:41:31.284Z,-0.30
2023-03-15T22:44:00.405Z,-0.30
2023-03-15T22:46:28.409Z,-0.30
2023-03-15T22:48:56.206Z,-0.20
2023-03-15T22:51:23.997Z,-0.20
2023-03-15T22:53:51.786Z,-0.20
2023-03-15T22:56:19.514Z,-0.30
2023-03-15T22:58:48.556Z,-0.30
2023-03-15T23:01:17.771Z,-0.30
2023-03-15T23:03:45.535Z,-0.30
2023-03-15T23:06:13.511Z,-0.30
2023-03-15T23:08:41.326Z,-0.40
2023-03-15T23:11:09.126Z,-0.40
2023-03-15T23:13:36.925Z,-0.40
2023-03-15T23:16:04.958Z,-0.40
2023-03-15T23:18:35.787Z,-0.40
2023-03-15T23:21:07.453Z,-0.40
2023-03-15T23:23:35.273Z,-0.50
2023-03-15T23:26:03.755Z,-0.50
2023-03-15T23:28:31.886Z,-0.40
2023-03-15T23:31:02.007Z,-0.50
2023-03-15T23:33:30.312Z,-0.50
2023-03-15T23:35:59.484Z,-0.50
2023-03-15T23:38:27.498Z,-0.60
2023-03-15T23:40:56.021Z,-0.60
2023-03-15T23:43:24.012Z,-0.60
2023-03-15T23:45:55.803Z,-0.50
2023-03-15T23:48:23.904Z,-0.60
2023-03-15T23:50:54.256Z,-0.60
2023-03-15T23:53:25.235Z,-0.60
2023-03-15T23:55:53.589Z,-0.70
2023-03-15T23:58:21.723Z,-0.70
